Time;durP1;ratioP1;P1;durP2;ratioP2;P2;SDS_P1;SDS_P2;PMS_P1;PMS_P2;Temp;Humidity;BMP_temperature;BMP_pressure;BME280_temperature;BME280_humidity;BME280_pressure;Samples;Min_cycle;Max_cycle;Signal;HPM_P1;HPM_P2
2022/03/08 00:00:38;;;;;;;;;70.00;54.25;;;;;2.10;68.85;99727.19;4952809;28;8867;-78
2022/03/08 00:03:10;;;;;;;;;55.00;48.50;;;;;1.80;69.76;99730.34;4953040;28;9003;-76
2022/03/08 00:05:39;;;;;;;;;55.75;45.25;;;;;1.24;70.66;99731.63;4951813;28;8883;-75
2022/03/08 00:08:08;;;;;;;;;64.75;51.25;;;;;0.95;72.56;99737.31;4961322;28;8865;-76
2022/03/08 00:10:38;;;;;;;;;57.50;49.50;;;;;0.34;74.87;99735.63;4988058;28;8930;-79
2022/03/08 00:13:07;;;;;;;;;67.50;51.50;;;;;0.09;77.19;99743.91;4987361;28;8979;-77
2022/03/08 00:15:36;;;;;;;;;63.50;54.25;;;;;0.24;77.12;99740.28;4958246;28;8890;-76
2022/03/08 00:18:05;;;;;;;;;65.50;49.25;;;;;0.22;77.60;99745.34;4998285;28;8906;-75
2022/03/08 00:20:35;;;;;;;;;64.25;48.50;;;;;-0.21;78.28;99749.44;4968138;28;8879;-77
2022/03/08 00:23:04;;;;;;;;;70.50;56.50;;;;;-0.42;79.91;99753.56;4919599;28;12511;-76
2022/03/08 00:25:32;;;;;;;;;65.00;52.00;;;;;-0.47;79.86;99745.69;4992053;28;8877;-77
2022/03/08 00:28:02;;;;;;;;;69.00;54.00;;;;;-0.62;80.16;99750.09;4991025;28;8982;-80
2022/03/08 00:30:33;;;;;;;;;61.75;50.75;;;;;-0.76;80.87;99743.41;4956764;28;8852;-78
2022/03/08 00:33:02;;;;;;;;;64.25;52.25;;;;;-0.80;80.83;99748.38;4970362;28;8896;-77
2022/03/08 00:35:33;;;;;;;;;65.75;51.75;;;;;-0.91;82.33;99746.13;5009862;28;8858;-76
2022/03/08 00:38:04;;;;;;;;;64.50;49.50;;;;;-0.79;82.64;99744.16;5010961;28;8901;-75
2022/03/08 00:40:33;;;;;;;;;72.50;56.50;;;;;-0.69;82.51;99748.91;4977899;28;8892;-79
2022/03/08 00:43:08;;;;;;;;;61.50;48.50;;;;;-0.41;81.23;99732.28;4995446;28;8984;-80
2022/03/08 00:45:37;;;;;;;;;59.50;47.00;;;;;-0.19;80.20;99736.69;4995304;28;8874;-79
2022/03/08 00:48:06;;;;;;;;;56.75;47.50;;;;;-0.10;78.97;99731.09;5011327;28;8842;-79
2022/03/08 00:50:36;;;;;;;;;68.50;53.75;;;;;0.27;78.36;99728.47;4994774;28;9633;-77
2022/03/08 00:53:05;;;;;;;;;77.00;57.00;;;;;0.24;77.24;99722.34;5012433;28;8881;-77
2022/03/08 00:55:36;;;;;;;;;58.25;50.25;;;;;0.47;76.78;99719.06;4994752;28;8862;-75
2022/03/08 00:58:06;;;;;;;;;64.25;47.50;;;;;0.40;76.68;99717.06;4977187;28;8866;-80
2022/03/08 01:00:39;;;;;;;;;70.75;54.25;;;;;0.43;76.33;99713.75;5011338;28;8870;-77
2022/03/08 01:03:08;;;;;;;;;58.50;50.75;;;;;0.60;76.07;99707.63;4994358;28;8881;-78
2022/03/08 01:05:40;;;;;;;;;67.50;51.00;;;;;0.84;74.83;99705.22;4994625;28;8878;-78
2022/03/08 01:08:09;;;;;;;;;53.50;47.50;;;;;0.85;74.05;99700.94;4997565;28;8953;-76
2022/03/08 01:10:38;;;;;;;;;66.75;48.50;;;;;0.87;73.88;99701.88;5013024;28;9656;-76
2022/03/08 01:13:07;;;;;;;;;64.25;51.00;;;;;0.69;74.17;99707.16;5013078;28;8940;-77
2022/03/08 01:15:37;;;;;;;;;54.75;47.25;;;;;0.64;74.44;99706.06;5010581;28;8866;-77
2022/03/08 01:18:05;;;;;;;;;70.25;53.50;;;;;0.88;74.59;99695.94;5010657;28;8858;-76
2022/03/08 01:20:42;;;;;;;;;59.50;47.50;;;;;1.09;74.32;99696.78;4995350;28;8866;-79
2022/03/08 01:23:11;;;;;;;;;66.75;54.00;;;;;0.90;72.37;99694.31;5010250;28;8874;-77
2022/03/08 01:25:40;;;;;;;;;65.75;51.75;;;;;0.61;72.89;99695.69;4961801;28;8846;-77
2022/03/08 01:28:09;;;;;;;;;66.75;51.25;;;;;0.72;73.01;99699.59;5011851;28;8882;-79
2022/03/08 01:30:39;;;;;;;;;66.00;52.00;;;;;0.44;72.92;99695.00;5010546;28;10038;-81
2022/03/08 01:33:08;;;;;;;;;61.75;52.25;;;;;0.13;73.77;99694.56;4993922;28;8854;-77
2022/03/08 01:35:37;;;;;;;;;56.75;48.50;;;;;0.03;74.17;99692.38;4993828;28;8964;-79
2022/03/08 01:38:06;;;;;;;;;54.25;47.50;;;;;0.15;74.31;99700.63;4993606;28;8850;-78
2022/03/08 01:40:40;;;;;;;;;66.00;53.25;;;;;0.42;73.78;99697.50;5010172;28;8951;-79
2022/03/08 01:43:09;;;;;;;;;68.75;50.75;;;;;0.57;73.21;99692.13;5009724;28;8889;-77
2022/03/08 01:45:39;;;;;;;;;70.00;50.00;;;;;0.73;72.24;99696.19;4960564;28;8842;-77
2022/03/08 01:48:11;;;;;;;;;65.00;50.25;;;;;0.77;71.49;99691.22;5009858;28;8854;-79
2022/03/08 01:50:40;;;;;;;;;55.75;46.25;;;;;0.32;71.74;99692.75;4993742;28;8996;-77
2022/03/08 01:53:09;;;;;;;;;66.25;52.00;;;;;0.31;71.51;99689.31;4992135;28;9607;-78
2022/03/08 01:55:38;;;;;;;;;48.25;44.50;;;;;-0.13;73.19;99703.66;4992181;28;8850;-80
2022/03/08 01:58:07;;;;;;;;;54.75;46.00;;;;;-0.27;73.94;99697.03;5008768;28;8881;-77
2022/03/08 02:00:36;;;;;;;;;65.00;51.25;;;;;-0.26;74.47;99701.34;4992094;28;8854;-77
2022/03/08 02:03:06;;;;;;;;;66.00;50.50;;;;;-0.44;74.73;99697.13;4976075;28;9761;-77
2022/03/08 02:05:35;;;;;;;;;66.50;54.00;;;;;-0.58;74.74;99700.75;4975957;28;8927;-79
2022/03/08 02:08:04;;;;;;;;;65.25;51.75;;;;;-0.75;75.78;99704.22;5014005;28;8847;-75
2022/03/08 02:10:33;;;;;;;;;69.00;51.75;;;;;-0.70;76.10;99703.63;4998274;28;8870;-75
2022/03/08 02:13:02;;;;;;;;;57.50;48.25;;;;;-0.69;76.07;99699.38;4993833;28;8850;-75
2022/03/08 02:15:31;;;;;;;;;67.75;53.00;;;;;-0.60;76.82;99703.25;4973928;28;8889;-77
2022/03/08 02:18:01;;;;;;;;;64.25;50.50;;;;;-0.23;76.00;99689.56;4955918;28;8852;-77
2022/03/08 02:20:31;;;;;;;;;57.50;48.25;;;;;-0.09;75.16;99691.84;4971611;28;8962;-81
2022/03/08 02:23:01;;;;;;;;;53.00;46.50;;;;;0.00;75.56;99692.28;4971069;28;9022;-77
2022/03/08 02:25:30;;;;;;;;;65.00;53.75;;;;;0.18;74.53;99687.91;4987809;28;8860;-75
2022/03/08 02:27:59;;;;;;;;;60.00;50.00;;;;;0.37;73.83;99688.72;4988562;28;8872;-78
2022/03/08 02:30:28;;;;;;;;;64.25;51.00;;;;;0.48;73.32;99691.75;4988945;28;8861;-81
2022/03/08 02:32:57;;;;;;;;;61.25;51.00;;;;;0.53;72.52;99697.91;4955992;28;8861;-80
2022/03/08 02:35:27;;;;;;;;;57.00;48.25;;;;;0.71;72.87;99685.84;4988458;28;8946;-77
2022/03/08 02:37:58;;;;;;;;;59.75;47.50;;;;;0.93;73.05;99690.19;4988500;28;8906;-76
2022/03/08 02:40:30;;;;;;;;;66.25;49.25;;;;;0.87;71.47;99689.03;4972458;28;8938;-78
2022/03/08 02:43:00;;;;;;;;;68.25;51.50;;;;;0.93;72.26;99689.31;4956475;28;8969;-76
2022/03/08 02:45:28;;;;;;;;;58.25;45.75;;;;;1.12;72.40;99693.50;4952694;28;8916;-79
2022/03/08 02:47:57;;;;;;;;;68.00;52.25;;;;;1.29;72.05;99689.00;5008548;28;8980;-77
2022/03/08 02:50:26;;;;;;;;;58.25;48.00;;;;;1.19;70.83;99689.44;4992150;28;8839;-78
2022/03/08 02:52:57;;;;;;;;;51.50;45.00;;;;;0.63;71.51;99694.94;4975446;28;8878;-77
2022/03/08 02:55:31;;;;;;;;;55.25;45.50;;;;;0.41;72.95;99699.97;4959613;28;9584;-75
2022/03/08 02:58:00;;;;;;;;;57.50;48.75;;;;;-0.22;74.83;99699.00;4988290;28;8869;-76
2022/03/08 03:00:30;;;;;;;;;30.50;26.00;;;;;-0.37;77.14;99703.41;4988575;28;9618;-75
2022/03/08 03:02:58;;;;;;;;;67.50;48.75;;;;;-0.45;77.29;99704.78;4988026;28;9606;-76
2022/03/08 03:05:28;;;;;;;;;66.25;52.50;;;;;-0.62;78.21;99701.44;4971259;28;8864;-76
2022/03/08 03:07:56;;;;;;;;;60.50;49.25;;;;;-0.57;78.22;99702.50;4987943;28;8922;-76
2022/03/08 03:10:26;;;;;;;;;57.25;48.50;;;;;-0.37;78.20;99705.13;4971841;28;8875;-78
2022/03/08 03:12:58;;;;;;;;;64.00;48.75;;;;;-0.22;77.36;99704.13;4971456;28;8841;-77
2022/03/08 03:15:28;;;;;;;;;70.00;54.75;;;;;-0.05;76.15;99701.44;4987832;28;8959;-75
2022/03/08 03:17:57;;;;;;;;;66.75;50.25;;;;;-0.64;78.17;99701.34;4969578;28;8856;-79
2022/03/08 03:20:27;;;;;;;;;50.25;45.00;;;;;-0.77;79.17;99716.06;4968818;28;8875;-75
2022/03/08 03:22:56;;;;;;;;;36.00;30.25;;;;;-0.94;80.32;99705.91;4968864;28;8859;-76
2022/03/08 03:25:25;;;;;;;;;61.00;49.50;;;;;-0.90;80.20;99710.34;4959145;28;8915;-74
2022/03/08 03:27:53;;;;;;;;;60.00;49.50;;;;;-0.79;80.16;99698.94;4955350;28;9816;-78
2022/03/08 03:30:23;;;;;;;;;71.00;55.25;;;;;-0.76;79.20;99703.31;4971034;28;9003;-75
2022/03/08 03:32:52;;;;;;;;;64.25;49.25;;;;;-0.89;79.83;99711.22;4955290;28;8880;-76
2022/03/08 03:35:21;;;;;;;;;56.50;45.00;;;;;-0.46;79.00;99703.00;4955774;28;8962;-76
2022/03/08 03:37:49;;;;;;;;;62.50;51.50;;;;;-0.18;78.25;99702.56;4987855;28;8876;-80
2022/03/08 03:40:18;;;;;;;;;57.25;45.25;;;;;0.11;76.73;99695.28;4956152;28;8951;-77
2022/03/08 03:42:47;;;;;;;;;57.75;48.25;;;;;-0.15;77.34;99710.41;4986832;28;8984;-75
2022/03/08 03:45:16;;;;;;;;;59.75;48.50;;;;;-0.57;79.47;99714.44;4970525;28;8879;-77
2022/03/08 03:47:46;;;;;;;;;59.25;47.25;;;;;-0.23;78.68;99706.59;4954887;28;8995;-77
2022/03/08 03:50:14;;;;;;;;;59.50;47.75;;;;;0.06;78.11;99701.88;4970550;28;8958;-77
2022/03/08 03:52:43;;;;;;;;;68.00;54.00;;;;;0.28;77.34;99709.69;4954808;28;8918;-77
2022/03/08 03:55:14;;;;;;;;;68.25;52.00;;;;;-0.11;76.83;99712.28;4970385;28;8861;-77
2022/03/08 03:57:43;;;;;;;;;60.50;48.50;;;;;-0.24;78.45;99710.00;4954320;28;8860;-77
2022/03/08 04:00:14;;;;;;;;;55.00;45.50;;;;;-0.06;77.64;99713.38;4984654;28;8852;-76
2022/03/08 04:02:43;;;;;;;;;53.75;47.50;;;;;-0.07;77.76;99714.19;4974293;28;8888;-77
2022/03/08 04:05:14;;;;;;;;;60.25;50.00;;;;;-0.05;77.07;99720.25;4973306;28;8859;-76
2022/03/08 04:07:43;;;;;;;;;65.00;48.75;;;;;-0.04;77.27;99709.19;4990709;28;8852;-76
2022/03/08 04:10:14;;;;;;;;;61.50;47.75;;;;;0.15;77.44;99716.00;5009145;28;8858;-79
2022/03/08 04:12:43;;;;;;;;;63.00;51.50;;;;;0.39;76.63;99712.72;5008243;28;8858;-79
2022/03/08 04:15:12;;;;;;;;;49.25;44.25;;;;;0.39;76.25;99721.28;5009397;28;8875;-78
2022/03/08 04:17:41;;;;;;;;;64.00;48.50;;;;;0.33;75.86;99718.47;4978417;28;8984;-77
2022/03/08 04:20:11;;;;;;;;;59.75;47.25;;;;;0.63;76.19;99715.47;4985703;28;8846;-77
2022/03/08 04:22:41;;;;;;;;;49.75;44.75;;;;;0.73;75.24;99716.72;5007334;28;8969;-80
2022/03/08 04:25:11;;;;;;;;;81.25;62.50;;;;;0.74;74.36;99706.53;5007122;28;8908;-76
2022/03/08 04:27:39;;;;;;;;;68.50;52.25;;;;;0.69;74.03;99715.72;5010764;28;8866;-77
2022/03/08 04:30:10;;;;;;;;;50.00;45.50;;;;;0.89;74.10;99708.84;4992161;28;8927;-74
2022/03/08 04:32:38;;;;;;;;;59.75;48.25;;;;;1.06;73.88;99711.19;4996663;28;8861;-75
2022/03/08 04:35:08;;;;;;;;;57.25;48.50;;;;;1.27;73.33;99711.19;4971781;28;8857;-75
2022/03/08 04:37:36;;;;;;;;;62.50;52.00;;;;;1.30;72.73;99717.31;4988097;28;8880;-77
2022/03/08 04:40:09;;;;;;;;;59.50;49.00;;;;;1.33;72.25;99714.88;5001082;28;8864;-80
2022/03/08 04:42:37;;;;;;;;;63.00;52.25;;;;;1.30;71.52;99717.31;4989020;28;9689;-78
2022/03/08 04:45:07;;;;;;;;;18.50;9.25;;;;;1.23;71.78;99720.47;4971759;28;8868;-77
2022/03/08 04:47:37;;;;;;;;;57.00;49.00;;;;;1.03;72.37;99719.66;4987372;28;8881;-78
2022/03/08 04:50:08;;;;;;;;;59.00;50.75;;;;;1.27;72.33;99712.06;4986830;28;8925;-79
2022/03/08 04:52:38;;;;;;;;;66.75;50.75;;;;;1.21;72.38;99716.06;5005649;28;8880;-77
2022/03/08 04:55:09;;;;;;;;;65.25;52.50;;;;;1.19;72.69;99722.84;4993118;28;8863;-76
2022/03/08 04:57:38;;;;;;;;;68.50;51.00;;;;;1.35;72.09;99714.94;4986075;28;8869;-76
2022/03/08 05:00:11;;;;;;;;;59.00;50.50;;;;;1.30;72.58;99713.88;4970690;28;9055;-75
2022/03/08 05:02:40;;;;;;;;;72.25;52.50;;;;;1.39;72.32;99716.78;4971773;28;8861;-78
2022/03/08 05:05:11;;;;;;;;;66.75;54.00;;;;;1.27;72.46;99714.63;5008408;28;8887;-80
2022/03/08 05:07:41;;;;;;;;;62.25;51.75;;;;;1.30;71.51;99709.59;4969807;28;8861;-78
2022/03/08 05:10:13;;;;;;;;;65.00;48.75;;;;;1.21;72.05;99716.06;4987606;28;8869;-76
2022/03/08 05:12:42;;;;;;;;;50.75;42.25;;;;;1.20;71.75;99711.75;5004568;28;8872;-78
2022/03/08 05:15:11;;;;;;;;;50.00;43.25;;;;;1.11;72.68;99714.84;4986029;28;8897;-79
2022/03/08 05:17:40;;;;;;;;;66.50;52.00;;;;;1.11;72.66;99713.13;4994266;28;8869;-75
2022/03/08 05:20:11;;;;;;;;;53.00;45.50;;;;;1.27;72.55;99719.78;4991176;28;8869;-75
2022/03/08 05:22:39;;;;;;;;;65.50;53.00;;;;;1.20;72.12;99722.03;4992157;28;8873;-77
2022/03/08 05:25:09;;;;;;;;;62.25;51.75;;;;;1.15;72.82;99717.59;4993462;28;8865;-77
2022/03/08 05:27:40;;;;;;;;;69.50;55.50;;;;;1.17;73.23;99717.63;4998699;28;8877;-77
2022/03/08 05:30:10;;;;;;;;;60.75;50.00;;;;;1.17;73.09;99717.63;4992067;28;8895;-75
2022/03/08 05:32:39;;;;;;;;;62.75;49.00;;;;;1.26;73.33;99718.00;4978279;28;8908;-79
2022/03/08 05:35:08;;;;;;;;;62.00;52.50;;;;;1.34;73.22;99714.06;4977036;28;8868;-81
2022/03/08 05:37:37;;;;;;;;;64.25;49.50;;;;;1.36;72.45;99717.56;4994535;28;9024;-76
2022/03/08 05:40:07;;;;;;;;;72.25;56.50;;;;;1.12;72.93;99722.59;4975556;28;8852;-75
2022/03/08 05:42:38;;;;;;;;;62.75;52.00;;;;;1.24;72.79;99724.78;4954645;28;9001;-78
2022/03/08 05:45:10;;;;;;;;;75.00;59.00;;;;;0.94;74.01;99727.84;4986775;28;8855;-76
2022/03/08 05:47:40;;;;;;;;;57.00;49.75;;;;;0.60;75.92;99727.28;4954768;28;8977;-76
2022/03/08 05:50:11;;;;;;;;;74.50;55.50;;;;;0.78;75.62;99726.38;4936419;28;8870;-76
2022/03/08 05:52:40;;;;;;;;;70.50;52.50;;;;;0.95;75.11;99723.63;4951497;28;8848;-77
2022/03/08 05:55:11;;;;;;;;;67.50;53.75;;;;;1.11;74.75;99722.53;4952078;28;8836;-76
2022/03/08 05:57:39;;;;;;;;;76.25;58.00;;;;;0.70;74.85;99726.84;4951642;28;9061;-79
2022/03/08 06:00:12;;;;;;;;;57.75;48.25;;;;;-0.11;78.71;99730.22;4984592;28;8875;-78
2022/03/08 06:02:41;;;;;;;;;66.25;51.25;;;;;-0.16;78.97;99728.28;4967843;28;8868;-77
2022/03/08 06:05:11;;;;;;;;;64.75;52.00;;;;;-0.26;79.54;99727.84;4968047;28;8859;-77
2022/03/08 06:07:40;;;;;;;;;55.00;48.75;;;;;-0.11;80.01;99719.13;4936113;28;8864;-78
2022/03/08 06:10:10;;;;;;;;;66.50;49.00;;;;;0.29;78.66;99721.72;4954021;28;8901;-78
2022/03/08 06:12:38;;;;;;;;;53.50;48.00;;;;;0.45;77.73;99719.81;4936428;28;8879;-78
2022/03/08 06:15:10;;;;;;;;;66.75;54.50;;;;;-0.07;79.24;99719.31;5004263;28;8917;-77
2022/03/08 06:17:38;;;;;;;;;64.00;50.00;;;;;0.25;78.47;99724.09;5004856;28;8986;-76
2022/03/08 06:20:09;;;;;;;;;67.50;52.50;;;;;-0.03;79.17;99728.00;4988312;28;8868;-77
2022/03/08 06:22:37;;;;;;;;;42.75;38.25;;;;;-0.58;81.82;99734.06;5004586;28;8895;-78
2022/03/08 06:25:07;;;;;;;;;65.00;52.75;;;;;-0.63;82.88;99745.75;4988376;28;8852;-78
2022/03/08 06:27:36;;;;;;;;;57.00;39.50;;;;;-0.41;81.67;99742.53;5003507;28;8858;-78
2022/03/08 06:30:07;;;;;;;;;66.50;53.00;;;;;-0.31;81.66;99744.69;4992249;28;8847;-76
2022/03/08 06:32:37;;;;;;;;;37.50;35.25;;;;;-0.54;82.65;99747.88;4955376;28;8874;-76
2022/03/08 06:35:06;;;;;;;;;71.50;52.25;;;;;-0.49;83.20;99748.94;5016613;28;8862;-78
2022/03/08 06:37:35;;;;;;;;;64.50;49.50;;;;;-0.64;83.70;99747.44;4992621;28;8866;-78
2022/03/08 06:40:04;;;;;;;;;69.00;52.50;;;;;-0.79;84.46;99745.03;5009222;28;8866;-77
2022/03/08 06:42:33;;;;;;;;;63.25;53.75;;;;;-0.71;84.59;99747.94;5008638;28;8869;-79
2022/03/08 06:45:02;;;;;;;;;62.75;48.75;;;;;-0.79;84.12;99750.16;4990729;28;8862;-79
2022/03/08 06:47:31;;;;;;;;;66.75;51.00;;;;;-0.92;84.90;99745.25;4991653;28;8870;-76
2022/03/08 06:50:01;;;;;;;;;62.75;53.00;;;;;-1.01;84.99;99752.47;5005012;28;8860;-76
2022/03/08 06:52:29;;;;;;;;;71.25;56.00;;;;;-0.99;86.52;99755.97;4957808;28;8899;-79
2022/03/08 06:54:58;;;;;;;;;60.25;52.00;;;;;-1.22;86.15;99763.41;4986600;28;9728;-77
2022/03/08 06:57:27;;;;;;;;;61.75;51.00;;;;;-1.28;86.24;99762.22;4995358;28;8850;-79
2022/03/08 06:59:55;;;;;;;;;66.50;49.75;;;;;-1.28;86.47;99759.69;4976736;28;8919;-76
2022/03/08 07:02:25;;;;;;;;;71.00;53.50;;;;;-1.30;86.97;99764.72;4976612;28;8879;-78
2022/03/08 07:04:54;;;;;;;;;68.50;54.00;;;;;-1.28;86.84;99772.47;4992985;28;8839;-77
2022/03/08 07:07:24;;;;;;;;;72.00;54.25;;;;;-1.32;86.57;99766.31;4991740;28;8886;-77
2022/03/08 07:09:53;;;;;;;;;58.25;49.25;;;;;-1.30;87.01;99758.72;4988684;28;8992;-77
2022/03/08 07:12:21;;;;;;;;;63.75;51.75;;;;;-1.18;86.69;99749.94;4986571;28;8852;-75
2022/03/08 07:14:50;;;;;;;;;58.25;49.00;;;;;-1.23;85.57;99755.66;4972856;28;8842;-76
2022/03/08 07:17:19;;;;;;;;;67.25;55.25;;;;;-1.24;85.92;99753.91;4988764;28;8961;-75
2022/03/08 07:19:48;;;;;;;;;64.25;52.25;;;;;-1.28;86.25;99752.88;5005639;28;8866;-75
2022/03/08 07:22:17;;;;;;;;;51.75;47.50;;;;;-1.21;87.04;99751.47;4974238;28;9002;-75
2022/03/08 07:24:47;;;;;;;;;57.25;48.25;;;;;-1.20;87.40;99755.81;5006666;28;8860;-75
2022/03/08 07:27:15;;;;;;;;;67.00;49.25;;;;;-1.12;87.69;99745.94;5005588;28;9608;-77
2022/03/08 07:29:46;;;;;;;;;56.75;48.25;;;;;-1.08;86.80;99753.84;4989916;28;8888;-77
2022/03/08 07:32:15;;;;;;;;;73.25;55.25;;;;;-0.99;86.77;99759.41;5006442;28;8846;-74
2022/03/08 07:34:44;;;;;;;;;69.75;55.50;;;;;-1.00;87.03;99751.69;4973585;28;9043;-74
2022/03/08 07:37:13;;;;;;;;;64.00;50.25;;;;;-1.05;85.77;99766.78;5022127;28;8866;-75
2022/03/08 07:39:41;;;;;;;;;63.00;54.25;;;;;-1.09;86.63;99752.09;5006629;28;8838;-76
2022/03/08 07:42:12;;;;;;;;;77.75;60.00;;;;;-0.99;85.81;99750.88;5006959;28;8854;-75
2022/03/08 07:44:43;;;;;;;;;61.75;46.25;;;;;-0.84;85.26;99751.59;5006438;28;8878;-75
2022/03/08 07:47:12;;;;;;;;;70.50;58.25;;;;;-0.78;85.54;99761.25;4990121;28;8987;-76
2022/03/08 07:49:41;;;;;;;;;67.50;55.25;;;;;-0.81;84.41;99756.00;5006662;28;8854;-76
2022/03/08 07:52:10;;;;;;;;;63.75;52.00;;;;;-0.75;84.39;99748.63;5007264;28;8858;-76
2022/03/08 07:54:39;;;;;;;;;72.00;52.25;;;;;-0.87;84.73;99755.69;4990900;28;8850;-75
2022/03/08 07:57:08;;;;;;;;;72.25;57.00;;;;;-0.67;84.13;99754.97;5006478;28;8850;-75
2022/03/08 07:59:38;;;;;;;;;70.67;58.00;;;;;-0.58;83.81;99749.41;5006527;28;8874;-76
2022/03/08 08:02:07;;;;;;;;;69.50;54.25;;;;;-0.66;82.42;99750.72;5006586;28;9113;-76
2022/03/08 08:04:36;;;;;;;;;75.25;59.50;;;;;-0.72;82.71;99747.88;5007755;28;8874;-75
2022/03/08 08:07:05;;;;;;;;;76.67;61.67;;;;;-0.70;83.60;99743.69;5003489;28;8996;-75
2022/03/08 08:09:34;;;;;;;;;80.75;62.50;;;;;-0.74;82.34;99739.25;5004346;28;8951;-74
2022/03/08 08:12:04;;;;;;;;;65.25;56.75;;;;;-0.80;82.60;99747.50;5007439;28;8884;-75
2022/03/08 08:14:32;;;;;;;;;71.75;54.50;;;;;-0.66;83.51;99758.41;4989281;28;8928;-75
2022/03/08 08:17:03;;;;;;;;;75.75;55.25;;;;;-0.55;82.55;99759.78;4989432;28;8977;-75
2022/03/08 08:19:31;;;;;;;;;71.75;59.75;;;;;-0.69;82.50;99755.72;4987260;28;9032;-74
2022/03/08 08:22:00;;;;;;;;;80.75;59.25;;;;;-0.61;82.56;99752.69;4990749;28;9592;-73
2022/03/08 08:24:29;;;;;;;;;69.25;57.50;;;;;-0.52;81.43;99757.38;5006763;28;8897;-74
2022/03/08 08:26:57;;;;;;;;;76.50;59.00;;;;;-0.40;82.31;99754.50;5006481;28;8969;-74
2022/03/08 08:29:26;;;;;;;;;68.75;57.75;;;;;-0.46;80.08;99756.78;4989274;28;8873;-74
2022/03/08 08:31:55;;;;;;;;;68.50;53.50;;;;;-0.17;79.97;99752.13;5005762;28;8886;-75
2022/03/08 08:34:25;;;;;;;;;64.25;50.50;;;;;-0.29;77.16;99755.00;5007594;28;8861;-73
2022/03/08 08:36:54;;;;;;;;;74.50;60.25;;;;;-0.13;78.84;99746.31;5007483;28;8858;-73
2022/03/08 08:39:23;;;;;;;;;68.00;54.00;;;;;-0.23;77.27;99750.16;4969566;28;8878;-74
2022/03/08 08:41:51;;;;;;;;;75.75;55.75;;;;;-0.07;77.79;99741.50;5005856;28;8866;-76
2022/03/08 08:44:20;;;;;;;;;70.75;56.00;;;;;0.05;75.76;99744.59;5007382;28;8842;-73
2022/03/08 08:46:49;;;;;;;;;62.25;49.50;;;;;0.25;74.64;99736.94;5003269;28;8851;-76
2022/03/08 08:49:18;;;;;;;;;74.50;58.00;;;;;0.27;74.42;99736.19;5003663;28;8885;-74
2022/03/08 08:51:48;;;;;;;;;73.50;56.00;;;;;-0.04;74.81;99739.06;4989426;28;8886;-74
2022/03/08 08:54:16;;;;;;;;;72.75;56.50;;;;;-0.03;75.46;99728.00;4992487;28;8866;-74
2022/03/08 08:56:45;;;;;;;;;71.75;56.75;;;;;0.14;75.86;99733.88;5008397;28;8868;-76
2022/03/08 08:59:14;;;;;;;;;61.75;51.50;;;;;0.38;75.29;99734.94;5008804;28;8858;-77
2022/03/08 09:01:43;;;;;;;;;56.00;47.50;;;;;0.06;75.69;99732.66;4933897;28;8881;-76
2022/03/08 09:04:12;;;;;;;;;66.25;54.50;;;;;0.11;74.98;99741.44;4950108;28;8943;-77
2022/03/08 09:06:41;;;;;;;;;72.00;54.00;;;;;0.32;73.91;99728.66;4918454;28;8860;-74
2022/03/08 09:09:12;;;;;;;;;71.75;57.25;;;;;0.78;72.53;99731.50;4933829;28;8979;-75
2022/03/08 09:11:40;;;;;;;;;71.00;55.50;;;;;0.87;72.41;99733.59;4886770;28;8853;-73
2022/03/08 09:14:09;;;;;;;;;65.75;55.50;;;;;0.52;71.35;99735.53;4934433;28;8852;-73
2022/03/08 09:16:38;;;;;;;;;54.25;47.25;;;;;0.73;70.41;99735.56;4949642;28;10037;-76
2022/03/08 09:19:07;;;;;;;;;50.00;45.25;;;;;1.03;71.94;99737.63;4933866;28;8931;-75
2022/03/08 09:21:35;;;;;;;;;46.75;42.50;;;;;1.51;71.04;99732.72;4948891;28;8974;-75
2022/03/08 09:24:05;;;;;;;;;54.25;45.75;;;;;1.98;70.02;99729.28;4968812;28;8868;-75
2022/03/08 09:26:35;;;;;;;;;68.25;51.00;;;;;2.43;68.54;99724.91;4968254;28;8910;-74
2022/03/08 09:29:04;;;;;;;;;68.00;56.50;;;;;2.19;66.49;99721.47;4937077;28;8880;-74
2022/03/08 09:31:32;;;;;;;;;59.00;49.00;;;;;1.32;67.79;99737.91;4967949;28;9024;-76
2022/03/08 09:34:01;;;;;;;;;60.50;51.50;;;;;1.30;70.19;99729.28;4965763;28;8855;-76
2022/03/08 09:36:29;;;;;;;;;64.00;52.00;;;;;1.29;68.54;99730.97;4968338;28;8913;-74
2022/03/08 09:38:59;;;;;;;;;55.25;48.25;;;;;1.16;68.38;99729.59;4983806;28;8908;-73
2022/03/08 09:41:28;;;;;;;;;50.50;45.75;;;;;1.03;69.31;99727.38;5008398;28;8885;-76
2022/03/08 09:43:59;;;;;;;;;57.25;50.25;;;;;1.27;67.91;99731.75;5025272;28;9000;-75
2022/03/08 09:46:28;;;;;;;;;68.25;54.50;;;;;1.52;68.84;99725.88;4992669;28;8963;-75
2022/03/08 09:48:57;;;;;;;;;53.25;48.75;;;;;1.61;67.25;99720.19;4999501;28;8889;-75
2022/03/08 09:51:26;;;;;;;;;57.25;45.50;;;;;1.85;68.06;99721.13;5010673;28;8881;-74
2022/03/08 09:53:55;;;;;;;;;62.00;51.50;;;;;1.95;67.29;99717.19;5006859;28;8862;-76
2022/03/08 09:56:24;;;;;;;;;59.75;50.25;;;;;1.69;64.80;99718.78;5007187;28;8993;-76
2022/03/08 09:58:53;;;;;;;;;64.00;53.25;;;;;1.79;65.49;99715.75;4992073;28;8866;-75
2022/03/08 10:01:22;;;;;;;;;69.00;51.75;;;;;1.63;67.37;99701.44;4990898;28;8886;-75
2022/03/08 10:03:52;;;;;;;;;61.50;51.75;;;;;1.95;68.15;99696.63;4974401;28;8901;-75
2022/03/08 10:06:21;;;;;;;;;66.00;54.25;;;;;1.70;68.07;99707.69;5016844;28;8862;-77
2022/03/08 10:08:50;;;;;;;;;70.50;57.00;;;;;1.95;68.00;99697.50;5004985;28;8848;-74
2022/03/08 10:11:19;;;;;;;;;72.50;59.00;;;;;1.85;68.49;99700.56;5008231;28;8896;-75
2022/03/08 10:13:52;;;;;;;;;71.75;57.75;;;;;1.79;67.68;99696.88;4991411;28;8858;-74
2022/03/08 10:16:26;;;;;;;;;54.25;47.75;;;;;2.14;68.70;99688.75;4975764;28;8874;-74
2022/03/08 10:18:56;;;;;;;;;56.00;48.50;;;;;2.54;66.71;99681.53;4978414;28;8855;-79
2022/03/08 10:21:32;;;;;;;;;70.50;52.75;;;;;2.66;66.99;99683.63;4971279;28;8864;-75
2022/03/08 10:24:02;;;;;;;;;70.00;56.50;;;;;3.34;68.27;99678.06;4968415;28;8897;-76
2022/03/08 10:26:33;;;;;;;;;58.25;50.75;;;;;3.47;63.63;99681.03;4991012;28;8916;-74
2022/03/08 10:29:04;;;;;;;;;50.00;41.50;;;;;2.81;62.90;99680.69;5008973;28;8857;-74
2022/03/08 10:31:34;;;;;;;;;57.00;45.75;;;;;2.51;63.79;99691.72;4990438;28;8886;-75
2022/03/08 10:34:06;;;;;;;;;69.75;54.25;;;;;2.17;65.86;99698.25;5007873;28;8873;-76
2022/03/08 10:36:37;;;;;;;;;65.75;52.25;;;;;2.07;65.71;99699.63;5009789;28;8858;-74
2022/03/08 10:39:15;;;;;;;;;71.75;56.00;;;;;2.10;67.16;99692.03;5007866;28;8858;-75
2022/03/08 10:41:49;;;;;;;;;58.25;49.50;;;;;1.92;66.31;99697.38;5007132;28;8866;-73
2022/03/08 10:44:31;;;;;;;;;62.75;52.00;;;;;1.91;65.97;99693.06;4991686;28;8858;-75
2022/03/08 10:47:05;;;;;;;;;68.00;53.00;;;;;2.27;66.44;99692.63;5006307;28;8878;-76
2022/03/08 10:49:35;;;;;;;;;51.25;44.25;;;;;2.62;65.30;99684.34;5008273;28;8905;-77
2022/03/08 10:52:06;;;;;;;;;53.75;48.00;;;;;3.03;63.42;99688.28;5007161;28;8866;-76
2022/03/08 10:54:35;;;;;;;;;58.75;47.50;;;;;3.47;63.58;99685.34;5007389;28;8938;-75
2022/03/08 10:57:04;;;;;;;;;65.75;52.50;;;;;3.86;63.41;99675.31;5007002;28;9630;-75
2022/03/08 10:59:33;;;;;;;;;54.75;47.75;;;;;3.83;58.14;99677.78;4958205;28;8870;-75
2022/03/08 11:02:20;;;;;;;;;49.50;45.00;;;;;3.94;54.27;99679.81;5007585;28;8858;-76
2022/03/08 11:05:06;;;;;;;;;41.75;37.25;;;;;4.36;58.67;99668.91;5006574;28;8850;-74
2022/03/08 11:07:35;;;;;;;;;39.25;33.75;;;;;4.73;55.59;99662.97;5023641;28;8864;-75
2022/03/08 11:10:06;;;;;;;;;36.50;34.00;;;;;4.98;53.16;99655.81;5007067;28;8924;-73
2022/03/08 11:12:35;;;;;;;;;38.75;35.00;;;;;4.92;50.90;99673.78;5006673;28;8944;-74
2022/03/08 11:15:10;;;;;;;;;37.25;29.50;;;;;5.17;52.10;99663.16;5006338;28;8890;-76
2022/03/08 11:17:43;;;;;;;;;38.25;36.25;;;;;5.35;51.75;99664.41;5006366;28;8862;-74
2022/03/08 11:20:13;;;;;;;;;39.75;36.50;;;;;5.28;49.56;99658.25;5004838;28;8904;-76
2022/03/08 11:22:42;;;;;;;;;47.25;42.50;;;;;5.23;49.60;99663.28;5023134;28;9786;-75
2022/03/08 11:25:14;;;;;;;;;36.50;34.00;;;;;5.40;50.25;99657.63;4974040;28;8882;-75
2022/03/08 11:28:04;;;;;;;;;26.00;24.00;;;;;5.36;48.93;99648.06;5006873;28;8864;-74
2022/03/08 11:30:36;;;;;;;;;40.25;36.50;;;;;5.37;49.70;99662.72;5008635;28;8878;-75
2022/03/08 11:33:12;;;;;;;;;34.50;34.25;;;;;5.53;48.61;99638.09;4986108;28;8883;-76
2022/03/08 11:35:52;;;;;;;;;37.25;31.25;;;;;5.54;48.35;99647.59;5002486;28;8873;-77
2022/03/08 11:38:20;;;;;;;;;38.75;29.25;;;;;5.84;50.80;99645.66;4988186;28;8996;-75
2022/03/08 11:40:53;;;;;;;;;42.50;33.75;;;;;6.10;50.64;99634.94;5017477;28;8969;-76